Weather at Variable Bor Ram Heliport

Public forecast

Using degrees Fahrenheit for public forecast. Weather courtesy of forecast.io.

Closest aviation weather report (METAR) to Variable Bor Ram Heliport

Closest report is Acadiana Regional Airport, 4.1 nm (7.6 km) SE. Retrieved 2020/10/31 05:53 UTC (18 minutes ago):

KARA 310553Z AUTO 03006KT 10SM CLR 11/09 A3023 RMK AO2 SLP236 T01060089 10144 20100 402000100 50002

Closest aviation forecast (TAF) to Variable Bor Ram Heliport

Closest forecast is Acadiana Regional Airport, 4.1 nm (7.6 km) SE. Retrieved 2020/10/31 06:24 UTC (0 seconds ago):

TAF TAF KARA 310520Z 3106/0106 03005KT P6SM SKC FM311500 06006KT P6SM SKC